createdAt,value
2023-04-15T00:01:13.446Z,88.80
2023-04-15T00:03:41.474Z,88.30
2023-04-15T00:06:09.789Z,88.08
2023-04-15T00:08:37.860Z,87.03
2023-04-15T00:11:07.397Z,86.80
2023-04-15T00:13:35.394Z,85.97
2023-04-15T00:16:03.422Z,87.05
2023-04-15T00:18:31.752Z,88.09
2023-04-15T00:20:59.746Z,88.71
2023-04-15T00:23:28.267Z,87.69
2023-04-15T00:25:56.626Z,87.92
2023-04-15T00:28:26.312Z,87.08
2023-04-15T00:30:54.197Z,86.50
2023-04-15T00:33:22.085Z,86.08
2023-04-15T00:35:49.976Z,86.86
2023-04-15T00:38:17.841Z,87.48
2023-04-15T00:40:45.908Z,87.81
2023-04-15T00:43:13.832Z,89.50
2023-04-15T00:45:43.558Z,90.44
2023-04-15T00:48:12.648Z,90.21
2023-04-15T00:50:40.608Z,89.77
2023-04-15T00:53:08.512Z,89.96
2023-04-15T00:55:37.365Z,90.49
2023-04-15T00:58:05.363Z,90.45
2023-04-15T01:00:33.372Z,90.96
2023-04-15T01:03:03.306Z,90.58
2023-04-15T01:05:31.967Z,89.70
2023-04-15T01:07:59.916Z,89.89
2023-04-15T01:10:27.934Z,89.99
2023-04-15T01:12:56.053Z,90.03
2023-04-15T01:15:24.188Z,90.49
2023-04-15T01:17:52.192Z,92.71
2023-04-15T01:20:22.296Z,94.05
2023-04-15T01:22:50.951Z,94.49
2023-04-15T01:25:21.666Z,93.68
2023-04-15T01:27:51.218Z,93.22
2023-04-15T01:30:19.156Z,91.94
2023-04-15T01:32:47.029Z,91.44
2023-04-15T01:35:14.932Z,90.90
2023-04-15T01:37:42.898Z,91.06
2023-04-15T01:40:11.279Z,92.38
2023-04-15T01:42:39.521Z,93.39
2023-04-15T01:45:10.582Z,94.06
2023-04-15T01:47:38.475Z,94.82
2023-04-15T01:50:08.584Z,95.05
2023-04-15T01:52:36.507Z,94.56
2023-04-15T01:55:04.491Z,94.49
2023-04-15T01:57:32.383Z,92.96
2023-04-15T02:00:00.265Z,93.30
2023-04-15T02:02:29.790Z,91.90
2023-04-15T02:04:58.168Z,90.47
2023-04-15T02:07:26.069Z,89.67
2023-04-15T02:09:54.432Z,88.79
2023-04-15T02:12:22.354Z,90.23
2023-04-15T02:14:50.289Z,90.39
2023-04-15T02:17:18.270Z,90.09
2023-04-15T02:19:48.224Z,89.74
2023-04-15T02:22:18.673Z,89.24
2023-04-15T02:24:47.528Z,89.67
2023-04-15T02:27:18.374Z,87.51
2023-04-15T02:29:46.599Z,86.55
2023-04-15T02:32:14.656Z,86.18
2023-04-15T02:34:43.080Z,85.70
2023-04-15T02:37:14.144Z,85.49
2023-04-15T02:39:42.102Z,84.98
2023-04-15T02:42:09.976Z,84.85
2023-04-15T02:44:38.021Z,84.94
2023-04-15T02:47:07.160Z,86.03
2023-04-15T02:49:35.142Z,88.10
2023-04-15T02:52:03.103Z,87.92
2023-04-15T02:54:33.943Z,87.33
2023-04-15T02:57:02.193Z,87.81
2023-04-15T02:59:30.248Z,87.76
2023-04-15T03:02:01.103Z,87.75
2023-04-15T03:04:30.241Z,87.59
2023-04-15T03:06:58.134Z,87.23
2023-04-15T03:09:26.514Z,86.85
2023-04-15T03:11:56.989Z,85.41
2023-04-15T03:14:24.917Z,85.10
2023-04-15T03:16:52.777Z,84.21
2023-04-15T03:19:20.686Z,82.58
2023-04-15T03:21:48.596Z,82.08
2023-04-15T03:24:16.661Z,81.48
2023-04-15T03:26:44.747Z,81.52
2023-04-15T03:29:14.052Z,82.34
2023-04-15T03:31:42.290Z,83.17
2023-04-15T03:34:10.142Z,85.04
2023-04-15T03:36:38.270Z,84.97
2023-04-15T03:39:06.250Z,84.94
2023-04-15T03:41:34.255Z,85.06
2023-04-15T03:44:02.300Z,84.66
2023-04-15T03:46:32.055Z,84.68
2023-04-15T03:49:00.396Z,83.55
2023-04-15T03:51:28.638Z,82.88
2023-04-15T03:53:57.072Z,83.22
2023-04-15T03:56:24.976Z,83.73
2023-04-15T03:58:52.946Z,83.88
2023-04-15T04:01:20.850Z,84.36
2023-04-15T04:03:50.308Z,84.03
2023-04-15T04:06:18.384Z,85.20
2023-04-15T04:08:46.365Z,84.86
2023-04-15T04:11:14.376Z,84.54
2023-04-15T04:13:42.312Z,85.16
2023-04-15T04:16:10.351Z,85.61
2023-04-15T04:18:38.621Z,87.44
2023-04-15T04:21:07.963Z,86.42
2023-04-15T04:23:35.960Z,86.51
2023-04-15T04:26:03.885Z,85.90
2023-04-15T04:28:31.765Z,85.69
2023-04-15T04:30:59.815Z,85.79
2023-04-15T04:33:27.677Z,86.16
2023-04-15T04:35:55.678Z,84.03
2023-04-15T04:38:25.052Z,81.55
2023-04-15T04:40:53.125Z,80.14
2023-04-15T04:43:21.142Z,79.72
2023-04-15T04:45:49.141Z,78.85
2023-04-15T04:48:17.418Z,78.40
2023-04-15T04:50:47.104Z,77.87
2023-04-15T04:53:16.223Z,77.83
2023-04-15T04:55:45.690Z,78.00
2023-04-15T04:58:13.676Z,77.85
2023-04-15T05:00:42.873Z,77.95
2023-04-15T05:03:10.971Z,78.69
2023-04-15T05:05:41.096Z,77.33
2023-04-15T05:08:09.066Z,75.50
2023-04-15T05:10:37.588Z,74.18
2023-04-15T05:13:06.955Z,72.32
2023-04-15T05:15:37.040Z,69.94
2023-04-15T05:18:05.162Z,69.50
2023-04-15T05:20:33.112Z,68.78
2023-04-15T05:23:01.162Z,66.85
2023-04-15T05:25:29.047Z,66.06
2023-04-15T05:27:57.014Z,64.57
2023-04-15T05:30:26.645Z,62.51
2023-04-15T05:32:54.640Z,61.23
2023-04-15T05:35:23.176Z,58.80
2023-04-15T05:37:51.200Z,59.05
2023-04-15T05:40:20.122Z,59.24
2023-04-15T05:42:48.021Z,54.72
2023-04-15T05:45:15.984Z,52.18
2023-04-15T05:47:45.364Z,53.37
2023-04-15T05:50:13.483Z,52.99
2023-04-15T05:52:41.588Z,53.35
2023-04-15T05:55:10.262Z,53.88
2023-04-15T05:57:38.161Z,53.55
2023-04-15T06:00:07.666Z,52.96
2023-04-15T06:02:35.688Z,53.74
2023-04-15T06:05:09.741Z,53.96
2023-04-15T06:07:38.700Z,54.27
2023-04-15T06:10:08.015Z,55.36
2023-04-15T06:12:35.994Z,55.31
2023-04-15T06:15:04.003Z,55.10
2023-04-15T06:17:31.942Z,53.47
2023-04-15T06:19:59.851Z,53.97
2023-04-15T06:22:29.149Z,57.51
2023-04-15T06:24:57.124Z,56.80
2023-04-15T06:27:25.141Z,55.80
2023-04-15T06:29:53.062Z,56.38
2023-04-15T06:32:21.005Z,56.59
2023-04-15T06:34:48.994Z,56.84
2023-04-15T06:37:16.875Z,56.23
2023-04-15T06:39:46.402Z,55.68
2023-04-15T06:42:14.619Z,54.99
2023-04-15T06:44:42.596Z,54.56
2023-04-15T06:47:10.521Z,53.32
2023-04-15T06:49:38.672Z,54.17
2023-04-15T06:52:06.779Z,53.48
2023-04-15T06:54:34.651Z,54.14
2023-04-15T06:57:03.922Z,54.19
2023-04-15T06:59:31.812Z,55.29
2023-04-15T07:01:59.866Z,57.10
2023-04-15T07:04:27.820Z,56.91
2023-04-15T07:06:56.996Z,58.37
2023-04-15T07:09:25.755Z,58.13
2023-04-15T07:11:53.743Z,57.48
2023-04-15T07:14:23.008Z,59.16
2023-04-15T07:16:51.135Z,58.06
2023-04-15T07:19:19.085Z,56.80
2023-04-15T07:21:48.202Z,55.42
2023-04-15T07:24:18.207Z,53.41
2023-04-15T07:26:46.245Z,52.37
2023-04-15T07:29:14.304Z,52.29
2023-04-15T07:31:43.776Z,52.24
2023-04-15T07:34:11.750Z,53.86
2023-04-15T07:36:40.518Z,54.21
2023-04-15T07:39:08.392Z,54.87
2023-04-15T07:41:36.387Z,55.51
2023-04-15T07:44:04.345Z,54.16
2023-04-15T07:46:32.324Z,53.38
2023-04-15T07:49:01.879Z,55.72
2023-04-15T07:51:30.811Z,57.64
2023-04-15T07:53:58.744Z,59.44
2023-04-15T07:56:27.268Z,59.35
2023-04-15T07:58:55.173Z,58.44
2023-04-15T08:01:24.054Z,60.53
2023-04-15T08:03:52.661Z,57.51
2023-04-15T08:06:22.811Z,55.96
2023-04-15T08:08:50.902Z,56.71
2023-04-15T08:11:18.867Z,55.99
2023-04-15T08:13:47.994Z,56.00
2023-04-15T08:16:19.857Z,56.46
2023-04-15T08:18:47.924Z,56.79
2023-04-15T08:21:16.051Z,56.58
2023-04-15T08:23:46.778Z,55.21
2023-04-15T08:26:14.778Z,56.26
2023-04-15T08:28:43.993Z,55.58
2023-04-15T08:31:12.042Z,52.78
2023-04-15T08:33:40.153Z,52.87
2023-04-15T08:36:08.659Z,52.59
2023-04-15T08:38:37.415Z,52.38
2023-04-15T08:41:20.165Z,51.85
2023-04-15T08:43:54.947Z,52.37
2023-04-15T08:46:23.732Z,49.04
2023-04-15T08:48:52.275Z,48.55
2023-04-15T08:51:20.418Z,47.77
2023-04-15T08:53:48.758Z,48.05
2023-04-15T08:56:18.985Z,46.99
2023-04-15T08:58:47.986Z,45.41
2023-04-15T09:01:15.922Z,43.95
2023-04-15T09:03:45.151Z,46.05
2023-04-15T09:06:13.144Z,47.18
2023-04-15T09:08:41.431Z,46.73
2023-04-15T09:11:09.363Z,48.08
2023-04-15T09:13:38.802Z,47.18
2023-04-15T09:16:08.367Z,47.75
2023-04-15T09:18:38.406Z,47.32
2023-04-15T09:21:08.982Z,46.15
2023-04-15T09:23:37.225Z,44.50
2023-04-15T09:26:06.433Z,46.89
2023-04-15T09:28:35.967Z,47.02
2023-04-15T09:31:05.328Z,48.48
2023-04-15T09:33:33.617Z,48.38
2023-04-15T09:36:04.711Z,48.12
2023-04-15T09:38:33.245Z,47.25
2023-04-15T09:41:01.186Z,47.62
2023-04-15T09:43:40.067Z,47.19
2023-04-15T09:46:09.531Z,45.41
2023-04-15T09:48:37.854Z,45.58
2023-04-15T09:51:06.198Z,45.28
2023-04-15T09:53:36.734Z,45.17
2023-04-15T09:56:07.858Z,42.83
2023-04-15T09:58:38.753Z,42.70
2023-04-15T10:01:09.188Z,43.63
2023-04-15T10:03:39.554Z,41.24
2023-04-15T10:06:08.148Z,41.57
2023-04-15T10:08:36.356Z,42.01
2023-04-15T10:11:05.036Z,40.17
2023-04-15T10:13:36.168Z,42.41
2023-04-15T10:16:07.554Z,41.07
2023-04-15T10:18:41.752Z,41.17
2023-04-15T10:21:10.331Z,44.96
2023-04-15T10:23:39.256Z,44.66
2023-04-15T10:26:07.869Z,44.00
2023-04-15T10:28:36.302Z,44.24
2023-04-15T10:31:07.320Z,45.53
2023-04-15T10:33:36.372Z,45.23
2023-04-15T10:36:07.866Z,46.13
2023-04-15T10:38:37.377Z,44.89
2023-04-15T10:41:17.062Z,44.85
2023-04-15T10:43:53.904Z,43.95
2023-04-15T10:46:26.689Z,42.19
2023-04-15T10:48:55.543Z,42.54
2023-04-15T10:51:32.593Z,42.95
2023-04-15T10:54:01.230Z,43.70
2023-04-15T10:56:32.269Z,41.34
2023-04-15T10:59:02.526Z,42.26
2023-04-15T11:01:51.978Z,41.26
2023-04-15T11:04:53.719Z,41.89
2023-04-15T11:07:43.607Z,39.90
2023-04-15T11:10:56.002Z,39.08
2023-04-15T11:13:29.382Z,38.01
2023-04-15T11:16:02.103Z,37.77
2023-04-15T11:18:35.193Z,38.90
2023-04-15T11:21:05.663Z,39.19
2023-04-15T11:23:37.262Z,39.38
2023-04-15T11:26:09.361Z,39.69
2023-04-15T11:28:39.129Z,40.08
2023-04-15T11:31:10.715Z,39.66
2023-04-15T11:33:39.173Z,39.73
2023-04-15T11:36:07.526Z,40.07
2023-04-15T11:38:38.047Z,40.49
2023-04-15T11:41:06.174Z,41.59
2023-04-15T11:43:35.574Z,41.27
2023-04-15T11:46:04.693Z,40.17
2023-04-15T11:48:34.778Z,40.52
2023-04-15T11:51:04.160Z,39.69
2023-04-15T11:53:41.574Z,40.13
2023-04-15T11:56:11.110Z,41.28
2023-04-15T11:58:39.635Z,40.33
2023-04-15T12:01:08.445Z,41.43
2023-04-15T12:03:40.858Z,40.56
2023-04-15T12:06:12.425Z,41.36
2023-04-15T12:09:02.801Z,41.99
2023-04-15T12:11:33.114Z,42.12
2023-04-15T12:14:05.858Z,42.58
2023-04-15T12:16:46.671Z,42.24
2023-04-15T12:19:19.490Z,41.69
2023-04-15T12:21:49.003Z,41.86
2023-04-15T12:24:22.886Z,42.15
2023-04-15T12:26:53.090Z,42.42
2023-04-15T12:29:22.237Z,42.55
2023-04-15T12:31:52.173Z,42.92
2023-04-15T12:34:26.920Z,42.79
2023-04-15T12:36:55.027Z,43.40
2023-04-15T12:39:25.408Z,43.80
2023-04-15T12:41:53.603Z,43.26
2023-04-15T12:44:24.005Z,43.89
2023-04-15T12:46:52.971Z,43.66
2023-04-15T12:49:21.722Z,44.33
2023-04-15T12:51:50.774Z,44.13
2023-04-15T12:54:19.143Z,44.29
2023-04-15T12:56:49.863Z,44.93
2023-04-15T12:59:18.855Z,44.82
2023-04-15T13:01:47.903Z,44.22
2023-04-15T13:04:16.518Z,45.33
2023-04-15T13:06:45.185Z,46.06
2023-04-15T13:09:13.278Z,46.97
2023-04-15T13:11:41.338Z,46.87
2023-04-15T13:14:11.716Z,47.25
2023-04-15T13:16:39.882Z,47.06
2023-04-15T13:19:08.107Z,46.41
2023-04-15T13:21:36.492Z,46.95
2023-04-15T13:24:07.371Z,47.31
2023-04-15T13:26:35.358Z,46.97
2023-04-15T13:29:03.251Z,46.80
2023-04-15T13:31:32.641Z,46.44
2023-04-15T13:34:00.635Z,46.41
2023-04-15T13:36:28.702Z,47.59
2023-04-15T13:38:57.054Z,46.83
2023-04-15T13:41:25.016Z,46.87
2023-04-15T13:43:52.905Z,47.66
2023-04-15T13:46:21.107Z,47.21
2023-04-15T13:48:50.405Z,47.48
2023-04-15T13:51:18.335Z,47.63
2023-04-15T13:53:46.315Z,47.50
2023-04-15T13:56:14.296Z,46.78
2023-04-15T13:58:42.575Z,47.29
2023-04-15T14:01:10.555Z,48.07
2023-04-15T14:03:39.025Z,48.65
2023-04-15T14:06:08.605Z,48.49
2023-04-15T14:08:36.551Z,47.61
2023-04-15T14:11:04.470Z,48.52
2023-04-15T14:13:32.410Z,48.56
2023-04-15T14:16:00.401Z,48.93
2023-04-15T14:18:28.400Z,48.95
2023-04-15T14:20:56.360Z,49.78
2023-04-15T14:23:25.645Z,50.30
2023-04-15T14:25:54.767Z,51.21
2023-04-15T14:28:22.660Z,51.80
2023-04-15T14:30:50.600Z,52.20
2023-04-15T14:33:18.611Z,51.54
2023-04-15T14:35:46.795Z,52.27
2023-04-15T14:38:14.769Z,52.90
2023-04-15T14:40:44.797Z,53.03
2023-04-15T14:43:12.978Z,53.31
2023-04-15T14:45:43.692Z,53.50
2023-04-15T14:48:13.368Z,53.39
2023-04-15T14:50:41.622Z,52.79
2023-04-15T14:53:10.867Z,52.82
2023-04-15T14:55:38.822Z,52.61
2023-04-15T14:58:09.460Z,53.20
2023-04-15T15:00:40.299Z,53.23
2023-04-15T15:03:12.931Z,52.33
2023-04-15T15:05:41.511Z,52.00
2023-04-15T15:08:10.123Z,50.85
2023-04-15T15:10:38.673Z,49.82
2023-04-15T15:13:17.136Z,50.02
2023-04-15T15:15:45.443Z,50.72
2023-04-15T15:18:13.451Z,51.28
2023-04-15T15:20:41.529Z,51.81
2023-04-15T15:23:09.466Z,52.01
2023-04-15T15:25:37.403Z,52.43
2023-04-15T15:28:05.879Z,51.27
2023-04-15T15:30:35.201Z,50.66
2023-04-15T15:33:03.214Z,50.26
2023-04-15T15:35:31.196Z,49.05
2023-04-15T15:38:00.624Z,49.48
2023-04-15T15:40:28.555Z,48.20
2023-04-15T15:42:56.463Z,48.43
2023-04-15T15:45:24.467Z,49.70
2023-04-15T15:47:53.849Z,48.64
2023-04-15T15:50:22.061Z,48.97
2023-04-15T15:52:49.978Z,48.68
2023-04-15T15:55:18.393Z,49.24
2023-04-15T15:57:46.493Z,48.74
2023-04-15T16:00:15.445Z,49.14
2023-04-15T16:05:15.907Z,50.19
2023-04-15T16:07:43.873Z,50.55
2023-04-15T16:10:14.064Z,50.89
2023-04-15T16:12:42.439Z,51.25
2023-04-15T16:15:12.103Z,52.22
2023-04-15T16:17:40.071Z,52.72
2023-04-15T16:20:09.027Z,52.41
2023-04-15T16:22:38.634Z,53.44
2023-04-15T16:25:07.284Z,54.12
2023-04-15T16:27:40.758Z,54.08
2023-04-15T16:30:18.345Z,54.07
2023-04-15T16:32:46.740Z,54.67
2023-04-15T16:35:16.339Z,54.68
2023-04-15T16:37:45.630Z,54.68
2023-04-15T16:40:13.993Z,54.87
2023-04-15T16:42:43.724Z,55.81
2023-04-15T16:45:12.147Z,56.50
2023-04-15T16:47:40.087Z,56.40
2023-04-15T16:50:09.105Z,55.78
2023-04-15T16:52:37.450Z,55.14
2023-04-15T16:55:07.497Z,55.28
2023-04-15T16:58:02.694Z,55.70
2023-04-15T17:00:23.662Z,55.97
2023-04-15T17:02:51.687Z,55.82
2023-04-15T17:05:19.922Z,54.94
2023-04-15T17:07:47.795Z,55.63
2023-04-15T17:10:17.404Z,55.32
2023-04-15T17:12:45.861Z,55.28
2023-04-15T17:15:13.960Z,55.25
2023-04-15T17:17:42.025Z,55.24
2023-04-15T17:20:13.337Z,55.90
2023-04-15T17:22:41.282Z,55.28
2023-04-15T17:25:09.844Z,54.66
2023-04-15T17:27:39.734Z,51.83
2023-04-15T17:30:09.362Z,51.93
2023-04-15T17:32:37.558Z,52.49
2023-04-15T17:35:06.865Z,50.97
2023-04-15T17:37:34.979Z,49.83
2023-04-15T17:40:08.618Z,54.36
2023-04-15T17:42:38.646Z,53.96
2023-04-15T17:45:07.726Z,53.47
2023-04-15T17:47:35.864Z,53.34
2023-04-15T17:50:03.876Z,52.39
2023-04-15T17:52:31.876Z,52.51
2023-04-15T17:54:59.769Z,54.06
2023-04-15T17:57:27.746Z,53.61
2023-04-15T17:59:57.146Z,54.01
2023-04-15T18:02:25.404Z,53.66
2023-04-15T18:04:53.681Z,53.69
2023-04-15T18:07:21.906Z,52.00
2023-04-15T18:09:50.737Z,52.83
2023-04-15T18:12:18.732Z,52.39
2023-04-15T18:14:46.736Z,52.10
2023-04-15T18:17:16.281Z,52.28
2023-04-15T18:19:45.958Z,52.11
2023-04-15T18:22:14.030Z,51.59
2023-04-15T18:24:42.017Z,51.73
2023-04-15T18:27:09.975Z,51.49
2023-04-15T18:29:38.536Z,52.45
2023-04-15T18:32:06.669Z,52.64
2023-04-15T18:34:36.027Z,53.69
2023-04-15T18:37:05.353Z,52.92
2023-04-15T18:39:33.434Z,53.88
2023-04-15T18:42:01.928Z,53.63
2023-04-15T18:44:29.854Z,53.51
2023-04-15T18:46:57.873Z,53.54
2023-04-15T18:49:27.179Z,54.48
2023-04-15T18:51:56.609Z,54.22
2023-04-15T18:54:24.475Z,54.04
2023-04-15T18:56:52.895Z,54.24
2023-04-15T18:59:29.291Z,53.36
2023-04-15T19:01:59.260Z,53.21
2023-04-15T19:04:28.814Z,53.33
2023-04-15T19:06:59.240Z,53.22
2023-04-15T19:09:27.475Z,53.65
2023-04-15T19:11:56.884Z,53.72
2023-04-15T19:14:24.911Z,53.37
2023-04-15T19:16:52.964Z,53.50
2023-04-15T19:19:21.030Z,53.35
2023-04-15T19:21:50.344Z,53.69
2023-04-15T19:24:20.063Z,53.38
2023-04-15T19:26:49.905Z,54.49
2023-04-15T19:29:18.404Z,55.08
2023-04-15T19:31:46.465Z,56.05
2023-04-15T19:34:14.434Z,57.08
2023-04-15T19:36:42.379Z,57.45
2023-04-15T19:39:11.066Z,58.93
2023-04-15T19:41:40.534Z,60.22
2023-04-15T19:44:08.507Z,60.99
2023-04-15T19:46:36.817Z,61.27
2023-04-15T19:49:05.206Z,62.10
2023-04-15T19:51:33.305Z,61.77
2023-04-15T19:54:01.296Z,62.23
2023-04-15T19:56:29.299Z,62.41
2023-04-15T19:58:59.759Z,63.58
2023-04-15T20:01:28.948Z,64.13
2023-04-15T20:03:57.152Z,64.08
2023-04-15T20:06:27.466Z,64.00
2023-04-15T20:08:55.408Z,63.79
2023-04-15T20:12:47.932Z,63.62
2023-04-15T20:14:18.650Z,62.90
2023-04-15T20:16:46.604Z,63.65
2023-04-15T20:19:14.736Z,64.11
2023-04-15T20:21:42.703Z,63.43
2023-04-15T20:24:10.884Z,62.87
2023-04-15T20:26:38.957Z,62.68
2023-04-15T20:29:07.047Z,63.68
2023-04-15T20:31:36.596Z,63.32
2023-04-15T20:34:04.529Z,62.69
2023-04-15T20:36:33.398Z,62.46
2023-04-15T20:39:01.667Z,61.51
2023-04-15T20:41:29.693Z,61.25
2023-04-15T20:43:57.640Z,61.67
2023-04-15T20:46:27.339Z,59.88
2023-04-15T20:48:57.201Z,59.87
2023-04-15T20:51:25.188Z,59.75
2023-04-15T20:53:53.141Z,59.86
2023-04-15T20:56:21.232Z,59.48
2023-04-15T20:58:49.166Z,59.38
2023-04-15T21:01:17.098Z,59.24
2023-04-15T21:03:45.191Z,58.20
2023-04-15T21:06:14.649Z,57.02
2023-04-15T21:08:42.595Z,56.79
2023-04-15T21:11:10.640Z,57.45
2023-04-15T21:13:38.609Z,57.75
2023-04-15T21:16:06.791Z,57.05
2023-04-15T21:18:34.823Z,56.06
2023-04-15T21:21:03.513Z,55.92
2023-04-15T21:23:35.937Z,55.97
2023-04-15T21:26:04.152Z,55.49
2023-04-15T21:28:32.699Z,54.54
2023-04-15T21:31:00.606Z,54.61
2023-04-15T21:33:28.530Z,54.62
2023-04-15T21:35:56.464Z,54.43
2023-04-15T21:38:24.395Z,54.64
2023-04-15T21:40:53.732Z,53.67
2023-04-15T21:43:22.967Z,53.29
2023-04-15T21:46:21.473Z,53.46
2023-04-15T21:48:38.863Z,53.68
2023-04-15T21:51:06.828Z,53.40
2023-04-15T21:53:34.962Z,53.35
2023-04-15T21:56:04.197Z,52.77
2023-04-15T21:58:32.368Z,53.27
2023-04-15T22:01:00.596Z,52.68
2023-04-15T22:03:30.567Z,54.07
2023-04-15T22:05:58.709Z,54.05
2023-04-15T22:08:26.609Z,54.42
2023-04-15T22:10:54.796Z,54.53
2023-04-15T22:13:24.080Z,54.43
2023-04-15T22:15:51.979Z,54.33
2023-04-15T22:18:19.860Z,55.30
2023-04-15T22:20:47.765Z,55.45
2023-04-15T22:23:17.541Z,55.36
2023-04-15T22:25:45.606Z,54.40
2023-04-15T22:28:14.207Z,54.98
2023-04-15T22:30:43.879Z,55.15
2023-04-15T22:33:12.211Z,54.39
2023-04-15T22:35:40.114Z,55.12
2023-04-15T22:38:08.140Z,54.89
2023-04-15T22:40:36.017Z,54.88
2023-04-15T22:43:04.052Z,54.37
2023-04-15T22:45:32.015Z,55.03
2023-04-15T22:48:02.624Z,54.10
2023-04-15T22:50:30.548Z,55.39
2023-04-15T22:52:58.496Z,55.70
2023-04-15T22:55:26.462Z,56.21
2023-04-15T22:57:54.433Z,55.70
2023-04-15T23:00:22.460Z,55.77
2023-04-15T23:02:50.719Z,55.23
2023-04-15T23:05:20.222Z,55.79
2023-04-15T23:07:48.255Z,55.99
2023-04-15T23:10:16.291Z,56.30
2023-04-15T23:12:44.228Z,55.82
2023-04-15T23:15:12.920Z,56.20
2023-04-15T23:17:41.039Z,57.55
2023-04-15T23:20:09.548Z,57.00
2023-04-15T23:22:38.948Z,57.26
2023-04-15T23:25:07.274Z,57.14
2023-04-15T23:27:35.555Z,57.16
2023-04-15T23:30:04.049Z,56.39
2023-04-15T23:32:32.058Z,57.16
2023-04-15T23:35:00.029Z,57.31
2023-04-15T23:37:27.976Z,57.34
2023-04-15T23:39:57.300Z,56.34
2023-04-15T23:42:25.940Z,56.37
2023-04-15T23:44:54.056Z,56.09
2023-04-15T23:47:23.011Z,56.60
2023-04-15T23:49:50.970Z,56.03
2023-04-15T23:52:19.064Z,57.20
2023-04-15T23:54:47.035Z,58.41
2023-04-15T23:57:16.289Z,57.22
2023-04-15T23:59:44.188Z,57.19
